createdAt,value
2016-08-14T00:00:19.770Z,0
2016-08-14T00:01:21.528Z,0
2016-08-14T00:02:20.909Z,0
2016-08-14T00:03:19.923Z,0
2016-08-14T00:04:21.114Z,0
2016-08-14T00:05:21.175Z,0
2016-08-14T00:06:20.217Z,0
2016-08-14T00:07:20.824Z,0
2016-08-14T00:08:21.794Z,0
2016-08-14T00:09:20.891Z,0
2016-08-14T00:10:21.012Z,0
2016-08-14T00:11:21.360Z,0
2016-08-14T00:12:21.065Z,0
2016-08-14T00:13:19.620Z,0
2016-08-14T00:14:20.520Z,0
2016-08-14T00:15:21.205Z,0
2016-08-14T00:16:20.606Z,0
2016-08-14T00:17:20.685Z,0
2016-08-14T00:18:19.894Z,0
2016-08-14T00:19:21.728Z,0
2016-08-14T00:20:20.719Z,0
2016-08-14T00:21:19.883Z,0
2016-08-14T00:22:23.076Z,0
2016-08-14T00:23:21.146Z,0
2016-08-14T00:24:22.300Z,0
2016-08-14T00:25:20.939Z,0
2016-08-14T00:26:22.841Z,0
2016-08-14T00:27:20.785Z,0
2016-08-14T00:28:22.847Z,0
2016-08-14T00:29:23.244Z,0
2016-08-14T00:30:20.920Z,0
2016-08-14T00:31:21.802Z,0
2016-08-14T00:32:20.613Z,0
2016-08-14T00:33:20.598Z,0
2016-08-14T00:34:21.735Z,0
2016-08-14T00:35:21.996Z,0
2016-08-14T00:36:20.990Z,0
2016-08-14T00:37:23.126Z,0
2016-08-14T00:38:22.680Z,0
2016-08-14T00:39:23.764Z,0
2016-08-14T00:40:21.824Z,0
2016-08-14T00:41:22.088Z,0
2016-08-14T00:42:22.477Z,0
2016-08-14T00:43:22.144Z,0
2016-08-14T00:44:21.764Z,0
2016-08-14T00:45:22.219Z,0
2016-08-14T00:46:22.392Z,0
2016-08-14T00:47:21.878Z,0
2016-08-14T00:48:23.208Z,0
2016-08-14T00:49:22.148Z,0
2016-08-14T00:50:23.270Z,0
2016-08-14T00:51:21.967Z,0
2016-08-14T00:52:22.332Z,0
2016-08-14T00:53:23.209Z,0
2016-08-14T00:54:21.842Z,0
2016-08-14T00:55:22.241Z,0
2016-08-14T00:56:21.467Z,0
2016-08-14T00:57:21.021Z,0
2016-08-14T00:58:23.328Z,0
2016-08-14T00:59:22.254Z,0
2016-08-14T01:00:22.766Z,0
2016-08-14T01:01:21.962Z,0
2016-08-14T01:02:21.974Z,0
2016-08-14T01:03:22.276Z,0
2016-08-14T01:04:22.295Z,0
2016-08-14T01:05:22.618Z,0
2016-08-14T01:06:23.285Z,0
2016-08-14T01:07:21.724Z,0
2016-08-14T01:08:22.048Z,0
2016-08-14T01:09:22.996Z,0
2016-08-14T01:10:22.229Z,0
2016-08-14T01:11:23.619Z,0
2016-08-14T01:12:23.556Z,0
2016-08-14T01:13:22.178Z,0
2016-08-14T01:14:23.001Z,0
2016-08-14T01:15:22.623Z,0
2016-08-14T01:16:22.520Z,0
2016-08-14T01:17:22.285Z,0
2016-08-14T01:18:22.925Z,0
2016-08-14T01:19:22.829Z,0
2016-08-14T01:20:23.756Z,0
2016-08-14T01:21:23.165Z,0
2016-08-14T01:22:23.212Z,0
2016-08-14T01:23:22.914Z,0
2016-08-14T01:24:23.588Z,0
2016-08-14T01:25:23.517Z,0
2016-08-14T01:26:23.305Z,0
2016-08-14T01:27:21.783Z,0
2016-08-14T01:28:23.034Z,0
2016-08-14T01:29:22.841Z,0
2016-08-14T01:30:21.809Z,0
2016-08-14T01:31:22.554Z,0
2016-08-14T01:32:22.306Z,0
2016-08-14T01:33:24.275Z,0
2016-08-14T01:34:22.589Z,0
2016-08-14T01:35:21.732Z,0
2016-08-14T01:36:22.513Z,0
2016-08-14T01:37:22.066Z,0
2016-08-14T01:38:23.994Z,0
2016-08-14T01:39:24.301Z,0
2016-08-14T01:40:23.137Z,0
2016-08-14T01:41:23.705Z,0
2016-08-14T01:42:23.461Z,0
2016-08-14T01:43:23.194Z,0
2016-08-14T01:44:24.940Z,0
2016-08-14T01:45:22.765Z,0
2016-08-14T01:46:23.713Z,0
2016-08-14T01:47:22.540Z,0
2016-08-14T01:48:24.729Z,0
2016-08-14T01:49:24.077Z,0
2016-08-14T01:50:22.769Z,0
2016-08-14T01:51:23.255Z,0
2016-08-14T01:52:23.551Z,0
2016-08-14T01:53:22.225Z,0
2016-08-14T01:54:24.170Z,0
2016-08-14T01:55:23.324Z,0
2016-08-14T01:56:23.141Z,0
2016-08-14T01:57:22.886Z,0
2016-08-14T01:58:24.291Z,0
2016-08-14T01:59:23.543Z,0
2016-08-14T02:00:23.759Z,0
2016-08-14T02:01:22.432Z,0
2016-08-14T02:02:25.642Z,0
2016-08-14T02:03:24.486Z,0
2016-08-14T02:04:23.742Z,0
2016-08-14T02:05:22.445Z,0
2016-08-14T02:06:23.316Z,0
2016-08-14T02:07:24.121Z,0
2016-08-14T02:08:23.148Z,0
2016-08-14T02:09:22.881Z,0
2016-08-14T02:10:23.055Z,0
2016-08-14T02:11:24.342Z,0
2016-08-14T02:12:24.750Z,0
2016-08-14T02:13:24.521Z,0
2016-08-14T02:14:23.859Z,0
2016-08-14T02:15:23.569Z,0
2016-08-14T02:16:23.112Z,0
2016-08-14T02:17:23.097Z,0
2016-08-14T02:18:24.207Z,0
2016-08-14T02:19:23.729Z,0
2016-08-14T02:20:23.791Z,0
2016-08-14T02:21:23.098Z,0
2016-08-14T02:22:24.708Z,0
2016-08-14T02:23:24.746Z,0
2016-08-14T02:24:24.516Z,0
2016-08-14T02:25:23.168Z,0
2016-08-14T02:26:25.511Z,0
2016-08-14T02:27:24.128Z,0
2016-08-14T02:28:22.914Z,0
2016-08-14T02:29:24.444Z,0
2016-08-14T02:30:23.358Z,0
2016-08-14T02:31:23.881Z,0
2016-08-14T02:32:25.004Z,0
2016-08-14T02:33:24.685Z,0
2016-08-14T02:34:23.802Z,0
2016-08-14T02:35:23.943Z,0
2016-08-14T02:36:23.712Z,0
2016-08-14T02:37:26.467Z,0
2016-08-14T02:38:25.996Z,0
2016-08-14T02:39:24.368Z,0
2016-08-14T02:40:25.602Z,0
2016-08-14T02:41:23.817Z,0
2016-08-14T02:42:24.013Z,0
2016-08-14T02:43:24.397Z,0
2016-08-14T02:44:24.743Z,0
2016-08-14T02:45:25.422Z,0
2016-08-14T02:46:25.881Z,0
2016-08-14T02:47:26.069Z,0
2016-08-14T02:48:24.589Z,0
2016-08-14T02:49:27.658Z,0
2016-08-14T02:50:24.903Z,0
2016-08-14T02:51:24.827Z,0
2016-08-14T02:52:24.362Z,0
2016-08-14T02:53:24.366Z,0
2016-08-14T02:54:25.216Z,0
2016-08-14T02:55:27.356Z,0
2016-08-14T02:56:25.606Z,0
2016-08-14T02:57:24.557Z,0
2016-08-14T02:58:26.268Z,0
2016-08-14T02:59:25.564Z,0
2016-08-14T03:00:24.737Z,0
2016-08-14T03:01:25.238Z,0
2016-08-14T03:02:24.612Z,0
2016-08-14T03:03:25.421Z,0
2016-08-14T03:04:25.844Z,0
2016-08-14T03:05:25.490Z,0
2016-08-14T03:06:26.906Z,0
2016-08-14T03:07:24.695Z,0
2016-08-14T03:08:24.947Z,0
2016-08-14T03:09:26.134Z,0
2016-08-14T03:10:25.142Z,0
2016-08-14T03:11:25.355Z,0
2016-08-14T03:12:24.972Z,0
2016-08-14T03:13:25.552Z,0
2016-08-14T03:14:24.691Z,0
2016-08-14T03:15:25.007Z,0
2016-08-14T03:16:24.231Z,0
2016-08-14T03:17:26.003Z,0
2016-08-14T03:18:25.461Z,0
2016-08-14T03:19:26.018Z,0
2016-08-14T03:20:24.860Z,0
2016-08-14T03:21:25.474Z,0
2016-08-14T03:22:25.507Z,0
2016-08-14T03:23:24.693Z,0
2016-08-14T03:24:24.432Z,0
2016-08-14T03:25:26.862Z,0
2016-08-14T03:26:25.887Z,0
2016-08-14T03:27:25.584Z,4
2016-08-14T03:28:25.714Z,4
2016-08-14T03:29:25.672Z,4
2016-08-14T03:30:24.478Z,0
2016-08-14T03:31:26.351Z,0
2016-08-14T03:32:25.833Z,4
2016-08-14T03:33:25.378Z,4
2016-08-14T03:34:25.783Z,4
2016-08-14T03:35:25.630Z,4
2016-08-14T03:36:25.750Z,4
2016-08-14T03:37:25.291Z,8
2016-08-14T03:38:25.906Z,8
2016-08-14T03:39:26.269Z,8
2016-08-14T03:40:25.078Z,12
2016-08-14T03:41:26.678Z,16
2016-08-14T03:42:24.542Z,16
2016-08-14T03:43:26.861Z,16
2016-08-14T03:44:27.110Z,20
2016-08-14T03:45:26.236Z,24
2016-08-14T03:46:27.241Z,28
2016-08-14T03:47:27.044Z,28
2016-08-14T03:48:25.270Z,36
2016-08-14T03:49:25.419Z,40
2016-08-14T03:50:25.631Z,48
2016-08-14T03:51:27.473Z,56
2016-08-14T03:52:25.249Z,64
2016-08-14T03:53:25.026Z,76
2016-08-14T03:54:26.554Z,80
2016-08-14T03:55:25.708Z,92
2016-08-14T03:56:25.742Z,100
2016-08-14T03:57:25.926Z,112
2016-08-14T03:58:26.795Z,128
2016-08-14T03:59:25.661Z,140
2016-08-14T04:00:28.114Z,148
2016-08-14T04:01:27.974Z,160
2016-08-14T04:02:26.116Z,168
2016-08-14T04:03:26.784Z,184
2016-08-14T04:04:26.862Z,196
2016-08-14T04:05:27.261Z,216
2016-08-14T04:06:27.070Z,236
2016-08-14T04:07:25.609Z,260
2016-08-14T04:08:25.975Z,284
2016-08-14T04:09:27.561Z,312
2016-08-14T04:10:25.886Z,340
2016-08-14T04:11:27.297Z,368
2016-08-14T04:12:27.452Z,396
2016-08-14T04:13:27.908Z,432
2016-08-14T04:14:27.228Z,468
2016-08-14T04:15:26.366Z,496
2016-08-14T04:16:27.056Z,536
2016-08-14T04:17:26.937Z,564
2016-08-14T04:18:27.138Z,592
2016-08-14T04:19:25.994Z,616
2016-08-14T04:20:27.658Z,644
2016-08-14T04:21:27.908Z,680
2016-08-14T04:22:27.118Z,724
2016-08-14T04:23:27.155Z,764
2016-08-14T04:24:25.884Z,812
2016-08-14T04:25:27.404Z,864
2016-08-14T04:26:27.161Z,924
2016-08-14T04:27:26.676Z,968
2016-08-14T04:28:27.984Z,1008
2016-08-14T04:29:27.290Z,1048
2016-08-14T04:30:27.742Z,1088
2016-08-14T04:31:26.938Z,1152
2016-08-14T04:32:26.323Z,1220
2016-08-14T04:33:27.765Z,1276
2016-08-14T04:34:29.183Z,1340
2016-08-14T04:35:26.751Z,1396
2016-08-14T04:36:25.885Z,1460
2016-08-14T04:37:27.290Z,1544
2016-08-14T04:38:27.246Z,1644
2016-08-14T04:39:28.322Z,1728
2016-08-14T04:40:27.836Z,1780
2016-08-14T04:41:27.053Z,1812
2016-08-14T04:42:26.955Z,1856
2016-08-14T04:43:26.971Z,1944
2016-08-14T04:44:29.110Z,2136
2016-08-14T04:45:28.078Z,2320
2016-08-14T04:46:28.221Z,2376
2016-08-14T04:47:27.526Z,2464
2016-08-14T04:48:27.672Z,2548
2016-08-14T04:49:28.849Z,2576
2016-08-14T04:50:28.066Z,2632
2016-08-14T04:51:29.078Z,2784
2016-08-14T04:52:28.200Z,2988
2016-08-14T04:53:27.197Z,3228
2016-08-14T04:54:28.270Z,3420
2016-08-14T04:55:27.706Z,3584
2016-08-14T04:56:27.705Z,3644
2016-08-14T04:57:29.111Z,3600
2016-08-14T04:58:28.933Z,3676
2016-08-14T04:59:28.441Z,3824
2016-08-14T05:00:26.978Z,3948
2016-08-14T05:01:27.585Z,4108
2016-08-14T05:02:27.988Z,4392
2016-08-14T05:03:29.273Z,4704
2016-08-14T05:04:28.151Z,4768
2016-08-14T05:05:28.666Z,4772
2016-08-14T05:06:27.690Z,4868
2016-08-14T05:07:28.261Z,4996
2016-08-14T05:08:28.141Z,5132
2016-08-14T05:09:27.072Z,5352
2016-08-14T05:10:28.306Z,5540
2016-08-14T05:11:29.344Z,5744
2016-08-14T05:12:28.757Z,5980
2016-08-14T05:13:28.443Z,6264
2016-08-14T05:14:29.855Z,6468
2016-08-14T05:15:27.978Z,6660
2016-08-14T05:16:27.235Z,6888
2016-08-14T05:17:27.936Z,7064
2016-08-14T05:18:26.987Z,7144
2016-08-14T05:19:27.167Z,7168
2016-08-14T05:20:27.099Z,7308
2016-08-14T05:21:28.148Z,7528
2016-08-14T05:22:30.243Z,7876
2016-08-14T05:23:28.924Z,8240
2016-08-14T05:24:27.872Z,8568
2016-08-14T05:25:27.898Z,8804
2016-08-14T05:26:30.089Z,8876
2016-08-14T05:27:27.768Z,8892
2016-08-14T05:28:28.983Z,8880
2016-08-14T05:29:27.173Z,8760
2016-08-14T05:30:28.393Z,8328
2016-08-14T05:31:29.872Z,7996
2016-08-14T05:32:29.609Z,7848
2016-08-14T05:33:28.446Z,7924
2016-08-14T05:34:29.544Z,7824
2016-08-14T05:35:29.773Z,7768
2016-08-14T05:36:28.880Z,7760
2016-08-14T05:37:29.384Z,7744
2016-08-14T05:38:28.845Z,7992
2016-08-14T05:39:28.799Z,8168
2016-08-14T05:40:28.720Z,8872
2016-08-14T05:41:27.784Z,9708
2016-08-14T05:42:29.320Z,10404
2016-08-14T05:43:28.720Z,11300
2016-08-14T05:44:29.388Z,11784
2016-08-14T05:45:27.825Z,11660
2016-08-14T05:46:29.084Z,11508
2016-08-14T05:47:29.504Z,11132
2016-08-14T05:48:28.233Z,11180
2016-08-14T05:49:27.958Z,11068
2016-08-14T05:50:29.631Z,10968
2016-08-14T05:51:28.884Z,11572
2016-08-14T05:52:29.756Z,12360
2016-08-14T05:53:28.154Z,13192
2016-08-14T05:54:27.794Z,13716
2016-08-14T05:55:28.548Z,14424
2016-08-14T05:56:28.309Z,15376
2016-08-14T05:57:28.355Z,15772
2016-08-14T05:58:29.284Z,14896
2016-08-14T05:59:28.967Z,15456
2016-08-14T06:00:30.059Z,15688
2016-08-14T06:01:31.050Z,14796
2016-08-14T06:02:30.392Z,14040
2016-08-14T06:03:28.488Z,13524
2016-08-14T06:04:28.965Z,12388
2016-08-14T06:05:30.443Z,11292
2016-08-14T06:06:30.161Z,11196
2016-08-14T06:07:28.319Z,11384
2016-08-14T06:08:28.872Z,11200
2016-08-14T06:09:29.084Z,11052
2016-08-14T06:10:30.385Z,11060
2016-08-14T06:11:29.198Z,9764
2016-08-14T06:12:30.647Z,9028
2016-08-14T06:13:28.682Z,8668
2016-08-14T06:14:29.704Z,8496
2016-08-14T06:15:29.569Z,8368
2016-08-14T06:16:29.778Z,8312
2016-08-14T06:17:30.588Z,8716
2016-08-14T06:18:31.010Z,9352
2016-08-14T06:19:30.761Z,10128
2016-08-14T06:20:29.874Z,11016
2016-08-14T06:21:30.628Z,11844
2016-08-14T06:22:29.236Z,12420
2016-08-14T06:23:30.199Z,12880
2016-08-14T06:24:28.805Z,12940
2016-08-14T06:25:30.195Z,12980
2016-08-14T06:26:31.121Z,12764
2016-08-14T06:27:29.294Z,12748
2016-08-14T06:28:29.812Z,13172
2016-08-14T06:29:30.230Z,13208
2016-08-14T06:30:31.081Z,12648
2016-08-14T06:31:30.081Z,11792
2016-08-14T06:32:30.265Z,11016
2016-08-14T06:33:29.028Z,10988
2016-08-14T06:34:30.660Z,11592
2016-08-14T06:35:29.106Z,12240
2016-08-14T06:36:31.418Z,13036
2016-08-14T06:37:30.198Z,13552
2016-08-14T06:38:30.352Z,13776
2016-08-14T06:39:31.328Z,13324
2016-08-14T06:40:30.714Z,12192
2016-08-14T06:41:30.574Z,10512
2016-08-14T06:42:30.362Z,9108
2016-08-14T06:43:30.699Z,8432
2016-08-14T06:44:30.423Z,8072
2016-08-14T06:45:30.044Z,7700
2016-08-14T06:46:30.392Z,7416
2016-08-14T06:47:30.271Z,7296
2016-08-14T06:48:30.646Z,7260
2016-08-14T06:49:30.015Z,7280
2016-08-14T06:50:30.498Z,7420
2016-08-14T06:51:30.017Z,7720
2016-08-14T06:52:31.551Z,8248
2016-08-14T06:53:29.831Z,9100
2016-08-14T06:54:31.210Z,10004
2016-08-14T06:55:29.376Z,10532
2016-08-14T06:56:31.899Z,10760
2016-08-14T06:57:29.716Z,11000
2016-08-14T06:58:30.578Z,11292
2016-08-14T06:59:30.575Z,11464
2016-08-14T07:00:30.681Z,11696
2016-08-14T07:01:32.050Z,11884
2016-08-14T07:02:30.563Z,11916
2016-08-14T07:03:29.917Z,11876
2016-08-14T07:04:32.719Z,11492
2016-08-14T07:05:31.869Z,11452
2016-08-14T07:06:31.193Z,11528
2016-08-14T07:07:30.211Z,11428
2016-08-14T07:08:29.998Z,11140
2016-08-14T07:09:30.387Z,10812
2016-08-14T07:10:30.725Z,10592
2016-08-14T07:11:30.425Z,10176
2016-08-14T07:12:32.131Z,9960
2016-08-14T07:13:30.425Z,10656
2016-08-14T07:14:32.146Z,11672
2016-08-14T07:15:30.876Z,12484
2016-08-14T07:16:31.240Z,12880
2016-08-14T07:17:31.643Z,13200
2016-08-14T07:18:31.768Z,13864
2016-08-14T07:19:32.066Z,15060
2016-08-14T07:20:30.681Z,16704
2016-08-14T07:21:33.535Z,17696
2016-08-14T07:22:30.958Z,18528
2016-08-14T07:23:31.541Z,16384
2016-08-14T07:24:30.566Z,15608
2016-08-14T07:25:34.159Z,16056
2016-08-14T07:26:32.351Z,15592
2016-08-14T07:27:30.578Z,15192
2016-08-14T07:28:33.422Z,14748
2016-08-14T07:29:30.683Z,14372
2016-08-14T07:30:31.763Z,13420
2016-08-14T07:31:30.765Z,12236
2016-08-14T07:32:32.899Z,11808
2016-08-14T07:33:33.241Z,12252
2016-08-14T07:34:31.242Z,13120
2016-08-14T07:35:30.578Z,13728
2016-08-14T07:36:32.593Z,12796
2016-08-14T07:37:32.950Z,11428
2016-08-14T07:38:31.858Z,10700
2016-08-14T07:39:31.719Z,9492
2016-08-14T07:40:32.458Z,8704
2016-08-14T07:41:31.949Z,8468
2016-08-14T07:42:32.058Z,8920
2016-08-14T07:43:31.460Z,9900
2016-08-14T07:44:31.715Z,10592
2016-08-14T07:45:31.841Z,10344
2016-08-14T07:46:31.243Z,11832
2016-08-14T07:47:31.769Z,16896
2016-08-14T07:48:32.230Z,22144
2016-08-14T07:49:30.433Z,24640
2016-08-14T07:50:30.990Z,26528
2016-08-14T07:51:32.381Z,28768
2016-08-14T07:52:33.742Z,31040
2016-08-14T07:53:34.021Z,36032
2016-08-14T07:54:31.970Z,37568
2016-08-14T07:55:32.626Z,42976
2016-08-14T07:56:31.961Z,33792
2016-08-14T07:57:32.185Z,28320
2016-08-14T07:58:32.393Z,26688
2016-08-14T07:59:33.009Z,26752
2016-08-14T08:00:32.998Z,25152
2016-08-14T08:01:33.116Z,24576
2016-08-14T08:02:32.557Z,25184
2016-08-14T08:03:33.710Z,26272
2016-08-14T08:04:32.917Z,27424
2016-08-14T08:05:32.619Z,29888
2016-08-14T08:06:32.277Z,34272
2016-08-14T08:07:31.729Z,28032
2016-08-14T08:08:32.604Z,24608
2016-08-14T08:09:32.913Z,23328
2016-08-14T08:10:32.874Z,22560
2016-08-14T08:11:32.246Z,20864
2016-08-14T08:12:33.777Z,17856
2016-08-14T08:13:31.702Z,15216
2016-08-14T08:14:32.077Z,14128
2016-08-14T08:15:33.512Z,14160
2016-08-14T08:16:34.034Z,14132
2016-08-14T08:17:34.342Z,14052
2016-08-14T08:18:31.737Z,14792
2016-08-14T08:19:32.550Z,15984
2016-08-14T08:20:33.365Z,17952
2016-08-14T08:21:32.125Z,20768
2016-08-14T08:22:32.969Z,24864
2016-08-14T08:23:32.109Z,26848
2016-08-14T08:24:32.785Z,25696
2016-08-14T08:25:33.349Z,26176
2016-08-14T08:26:32.620Z,28256
2016-08-14T08:27:33.480Z,29472
2016-08-14T08:28:32.402Z,29984
2016-08-14T08:29:33.631Z,31520
2016-08-14T08:30:33.739Z,34496
2016-08-14T08:31:32.618Z,36736
2016-08-14T08:32:33.238Z,39200
2016-08-14T08:33:32.971Z,42560
2016-08-14T08:34:35.393Z,44544
2016-08-14T08:35:32.104Z,42592
2016-08-14T08:36:33.440Z,35744
2016-08-14T08:37:32.975Z,28736
2016-08-14T08:38:35.401Z,25984
2016-08-14T08:39:32.685Z,25248
2016-08-14T08:40:34.734Z,22752
2016-08-14T08:41:34.161Z,18112
2016-08-14T08:42:33.315Z,14136
2016-08-14T08:43:35.722Z,12072
2016-08-14T08:44:34.499Z,12332
2016-08-14T08:45:34.284Z,14816
2016-08-14T08:46:33.066Z,19840
2016-08-14T08:47:34.084Z,26080
2016-08-14T08:48:33.307Z,30528
2016-08-14T08:49:34.529Z,33568
2016-08-14T08:50:33.495Z,32544
2016-08-14T08:51:33.490Z,31424
2016-08-14T08:52:34.814Z,33376
2016-08-14T08:53:33.364Z,38560
2016-08-14T08:54:32.703Z,46240
2016-08-14T08:55:33.391Z,36160
2016-08-14T08:56:33.312Z,29984
2016-08-14T08:57:33.359Z,28288
2016-08-14T08:58:33.123Z,31456
2016-08-14T08:59:34.568Z,40640
2016-08-14T09:00:33.741Z,56704
2016-08-14T09:01:35.287Z,62336
2016-08-14T09:02:33.551Z,56064
2016-08-14T09:03:34.305Z,40128
2016-08-14T09:04:33.897Z,49632
2016-08-14T09:05:34.178Z,53728
2016-08-14T09:06:34.688Z,39744
2016-08-14T09:07:33.763Z,65152
2016-08-14T09:08:34.358Z,44096
2016-08-14T09:09:33.884Z,47136
2016-08-14T09:10:34.175Z,67680
2016-08-14T09:11:34.088Z,61856
2016-08-14T09:12:35.288Z,55232
2016-08-14T09:13:34.314Z,57728
2016-08-14T09:14:34.201Z,52448
2016-08-14T09:15:35.117Z,59200
2016-08-14T09:16:34.591Z,62848
2016-08-14T09:17:35.699Z,40096
2016-08-14T09:18:35.160Z,42464
2016-08-14T09:19:32.998Z,40352
2016-08-14T09:20:36.178Z,53440
2016-08-14T09:21:36.853Z,45984
2016-08-14T09:22:34.074Z,46624
2016-08-14T09:23:34.689Z,43840
2016-08-14T09:24:34.232Z,45952
2016-08-14T09:25:36.514Z,55936
2016-08-14T09:26:34.927Z,42144
2016-08-14T09:27:34.860Z,46176
2016-08-14T09:28:34.482Z,58400
2016-08-14T09:29:34.469Z,64288
2016-08-14T09:30:35.402Z,55328
2016-08-14T09:31:34.417Z,44704
2016-08-14T09:32:33.499Z,46528
2016-08-14T09:33:36.112Z,48128
2016-08-14T09:34:35.019Z,41376
2016-08-14T09:35:37.224Z,40832
2016-08-14T09:36:34.301Z,38976
2016-08-14T09:37:35.764Z,37248
2016-08-14T09:38:36.221Z,50688
2016-08-14T09:39:34.532Z,52032
2016-08-14T09:40:35.302Z,55296
2016-08-14T09:41:35.476Z,60192
2016-08-14T09:42:36.891Z,54944
2016-08-14T09:43:35.270Z,41632
2016-08-14T09:44:34.460Z,46784
2016-08-14T09:45:34.372Z,84384
2016-08-14T09:46:36.320Z,89664
2016-08-14T09:47:36.288Z,73824
2016-08-14T09:48:35.341Z,56192
2016-08-14T09:49:35.999Z,87456
2016-08-14T09:50:35.672Z,91840
2016-08-14T09:51:36.764Z,74496
2016-08-14T09:52:35.132Z,42176
2016-08-14T09:53:35.787Z,40896
2016-08-14T09:54:35.664Z,43488
2016-08-14T09:55:35.806Z,41472
2016-08-14T09:56:36.986Z,26048
2016-08-14T09:57:37.727Z,26016
2016-08-14T09:58:35.110Z,28192
2016-08-14T09:59:35.384Z,31296
2016-08-14T10:00:36.704Z,33472
2016-08-14T10:01:35.792Z,31520
2016-08-14T10:02:36.726Z,30944
2016-08-14T10:03:34.801Z,32608
2016-08-14T10:04:37.694Z,33408
2016-08-14T10:05:35.108Z,32800
2016-08-14T10:06:36.033Z,32096
2016-08-14T10:07:36.110Z,33024
2016-08-14T10:08:35.421Z,36288
2016-08-14T10:09:36.455Z,36288
2016-08-14T10:10:36.873Z,40544
2016-08-14T10:11:35.884Z,60896
2016-08-14T10:12:38.281Z,42240
2016-08-14T10:13:36.229Z,55168
2016-08-14T10:14:36.976Z,43392
2016-08-14T10:15:37.989Z,42464
2016-08-14T10:16:36.282Z,42656
2016-08-14T10:17:35.440Z,72096
2016-08-14T10:18:37.703Z,47328
2016-08-14T10:19:36.087Z,51392
2016-08-14T10:20:36.089Z,44896
2016-08-14T10:21:35.715Z,38240
2016-08-14T10:22:37.942Z,38912
2016-08-14T10:23:36.860Z,47360
2016-08-14T10:24:36.923Z,48480
2016-08-14T10:25:36.709Z,45984
2016-08-14T10:26:37.303Z,47904
2016-08-14T10:27:36.682Z,55136
2016-08-14T10:28:35.830Z,52256
2016-08-14T10:29:36.312Z,50784
2016-08-14T10:30:38.848Z,47680
2016-08-14T10:31:39.094Z,44928
2016-08-14T10:32:37.023Z,43488
2016-08-14T10:33:36.469Z,36032
2016-08-14T10:34:36.802Z,32384
2016-08-14T10:35:37.200Z,31264
2016-08-14T10:36:37.432Z,30752
2016-08-14T10:37:37.052Z,31520
2016-08-14T10:38:35.964Z,33312
2016-08-14T10:39:36.246Z,35840
2016-08-14T10:40:37.282Z,36640
2016-08-14T10:41:37.683Z,38944
2016-08-14T10:42:37.560Z,37344
2016-08-14T10:43:37.577Z,50688
2016-08-14T10:44:39.680Z,43968
2016-08-14T10:45:38.286Z,34112
2016-08-14T10:46:38.267Z,49120
2016-08-14T10:47:39.947Z,45536
2016-08-14T10:48:38.940Z,43584
2016-08-14T10:49:37.514Z,44704
2016-08-14T10:50:37.618Z,50976
2016-08-14T10:51:37.368Z,47168
2016-08-14T10:52:37.396Z,47808
2016-08-14T10:53:38.089Z,42848
2016-08-14T10:54:38.097Z,38368
2016-08-14T10:55:37.211Z,58720
2016-08-14T10:56:37.628Z,49568
2016-08-14T10:57:37.818Z,53696
2016-08-14T10:58:37.597Z,62080
2016-08-14T10:59:38.120Z,62624
2016-08-14T11:00:37.517Z,73280
2016-08-14T11:01:37.592Z,59936
2016-08-14T11:02:37.515Z,58816
2016-08-14T11:03:37.505Z,63616
2016-08-14T11:04:39.325Z,67040
2016-08-14T11:05:38.578Z,70464
2016-08-14T11:06:38.021Z,63424
2016-08-14T11:07:38.072Z,67200
2016-08-14T11:08:38.202Z,73344
2016-08-14T11:09:38.107Z,49376
2016-08-14T11:10:38.352Z,29056
2016-08-14T11:11:40.034Z,46528
2016-08-14T11:12:38.040Z,74784
2016-08-14T11:13:37.419Z,60544
2016-08-14T11:14:38.903Z,60896
2016-08-14T11:15:37.966Z,82880
2016-08-14T11:16:38.017Z,73120
2016-08-14T11:17:39.253Z,54816
2016-08-14T11:18:37.447Z,42624
2016-08-14T11:19:39.581Z,43552
2016-08-14T11:20:37.819Z,42368
2016-08-14T11:21:38.574Z,42208
2016-08-14T11:22:40.322Z,62560
2016-08-14T11:23:40.150Z,108032
2016-08-14T11:24:39.146Z,60064
2016-08-14T11:25:38.931Z,88864
2016-08-14T11:26:38.512Z,56608
2016-08-14T11:27:38.485Z,50336
2016-08-14T11:28:38.022Z,76512
2016-08-14T11:29:38.924Z,60800
2016-08-14T11:30:39.236Z,76512
2016-08-14T11:31:38.092Z,97664
2016-08-14T11:32:39.036Z,90272
2016-08-14T11:33:39.911Z,64544
2016-08-14T11:34:38.679Z,76704
2016-08-14T11:35:38.871Z,44864
2016-08-14T11:36:38.714Z,42784
2016-08-14T11:37:38.952Z,45920
2016-08-14T11:38:39.326Z,46016
2016-08-14T11:39:39.669Z,50752
2016-08-14T11:40:39.521Z,78240
2016-08-14T11:41:38.904Z,48064
2016-08-14T11:42:39.221Z,107456
2016-08-14T11:43:39.413Z,86080
2016-08-14T11:44:39.190Z,94208
2016-08-14T11:45:39.542Z,101984
2016-08-14T11:46:40.221Z,72704
2016-08-14T11:47:40.890Z,63232
2016-08-14T11:48:39.601Z,54176
2016-08-14T11:49:38.476Z,53472
2016-08-14T11:50:40.351Z,78112
2016-08-14T11:51:41.177Z,70944
2016-08-14T11:52:38.824Z,99168
2016-08-14T11:53:41.455Z,61024
2016-08-14T11:54:39.832Z,73920
2016-08-14T11:55:39.753Z,86688
2016-08-14T11:56:39.364Z,60672
2016-08-14T11:57:38.591Z,52320
2016-08-14T11:58:39.730Z,55616
2016-08-14T11:59:40.212Z,49440
2016-08-14T12:00:39.535Z,48256
2016-08-14T12:01:39.963Z,40320
2016-08-14T12:02:41.178Z,75616
2016-08-14T12:03:40.169Z,107328
2016-08-14T12:04:41.556Z,45568
2016-08-14T12:05:40.398Z,42944
2016-08-14T12:06:41.286Z,50560
2016-08-14T12:07:39.863Z,46784
2016-08-14T12:08:42.335Z,99840
2016-08-14T12:09:40.188Z,55552
2016-08-14T12:10:41.159Z,67200
2016-08-14T12:11:40.659Z,40896
2016-08-14T12:12:40.665Z,39520
2016-08-14T12:13:42.103Z,38880
2016-08-14T12:14:40.160Z,40608
2016-08-14T12:15:39.629Z,43840
2016-08-14T12:16:42.350Z,56384
2016-08-14T12:17:43.104Z,43104
2016-08-14T12:18:39.771Z,51392
2016-08-14T12:19:40.468Z,61024
2016-08-14T12:20:40.405Z,46560
2016-08-14T12:21:41.113Z,58016
2016-08-14T12:22:40.133Z,79360
2016-08-14T12:23:41.062Z,50496
2016-08-14T12:24:39.964Z,49376
2016-08-14T12:25:41.517Z,42976
2016-08-14T12:26:40.978Z,42400
2016-08-14T12:27:40.518Z,76032
2016-08-14T12:28:42.210Z,70208
2016-08-14T12:29:42.661Z,53952
2016-08-14T12:30:40.674Z,88832
2016-08-14T12:31:41.198Z,72032
2016-08-14T12:32:42.368Z,67648
2016-08-14T12:33:40.875Z,66560
2016-08-14T12:34:41.307Z,44320
2016-08-14T12:35:42.296Z,92032
2016-08-14T12:36:42.569Z,70336
2016-08-14T12:37:40.396Z,63776
2016-08-14T12:38:42.016Z,73280
2016-08-14T12:39:40.395Z,80288
2016-08-14T12:40:40.380Z,63360
2016-08-14T12:41:43.694Z,53152
2016-08-14T12:42:42.001Z,85760
2016-08-14T12:43:42.081Z,81888
2016-08-14T12:44:40.396Z,67712
2016-08-14T12:45:42.108Z,45184
2016-08-14T12:46:42.660Z,38912
2016-08-14T12:47:41.075Z,38752
2016-08-14T12:48:43.857Z,79424
2016-08-14T12:49:41.066Z,35328
2016-08-14T12:50:41.037Z,40800
2016-08-14T12:51:40.841Z,33760
2016-08-14T12:52:42.600Z,33024
2016-08-14T12:53:42.443Z,48000
2016-08-14T12:54:43.337Z,37440
2016-08-14T12:55:42.239Z,87808
2016-08-14T12:56:42.404Z,41664
2016-08-14T12:57:41.331Z,69760
2016-08-14T12:58:40.978Z,38112
2016-08-14T12:59:42.771Z,35232
2016-08-14T13:00:42.986Z,33760
2016-08-14T13:01:42.663Z,31968
2016-08-14T13:02:41.575Z,42624
2016-08-14T13:03:43.742Z,29696
2016-08-14T13:04:42.464Z,29184
2016-08-14T13:05:43.135Z,28064
2016-08-14T13:06:42.487Z,27520
2016-08-14T13:07:41.106Z,27264
2016-08-14T13:08:42.682Z,27840
2016-08-14T13:09:43.217Z,26240
2016-08-14T13:10:42.566Z,25088
2016-08-14T13:11:42.777Z,23840
2016-08-14T13:12:41.532Z,22592
2016-08-14T13:13:44.076Z,21408
2016-08-14T13:14:42.654Z,20480
2016-08-14T13:15:43.844Z,19968
2016-08-14T13:16:43.280Z,21248
2016-08-14T13:17:43.599Z,24864
2016-08-14T13:18:42.958Z,25504
2016-08-14T13:19:43.390Z,27104
2016-08-14T13:20:41.977Z,30080
2016-08-14T13:21:41.946Z,34112
2016-08-14T13:22:42.731Z,36800
2016-08-14T13:23:42.760Z,38144
2016-08-14T13:24:41.934Z,74848
2016-08-14T13:25:42.459Z,43296
2016-08-14T13:26:43.271Z,43840
2016-08-14T13:27:45.428Z,43680